Time;durP1;ratioP1;P1;durP2;ratioP2;P2;SDS_P1;SDS_P2;PMS_P1;PMS_P2;Temp;Humidity;BMP_temperature;BMP_pressure;BME280_temperature;BME280_humidity;BME280_pressure;Samples;Min_cycle;Max_cycle;Signal;HPM_P1;HPM_P2
2021/07/19 00:02:17;;;;;;;31.20;18.60;;;;;;;21.58;95.86;99515.77;1656385;86;21121;-81
2021/07/19 00:04:45;;;;;;;34.48;19.00;;;;;;;21.56;96.52;99512.38;1656476;86;21091;-82
2021/07/19 00:07:14;;;;;;;35.13;18.65;;;;;;;21.55;96.89;99511.17;1656214;86;21058;-83
2021/07/19 00:09:44;;;;;;;32.95;18.30;;;;;;;21.52;96.82;99512.31;1656516;86;21649;-82
2021/07/19 00:12:14;;;;;;;29.65;19.65;;;;;;;21.51;97.22;99513.31;1656536;86;21129;-83
2021/07/19 00:14:52;;;;;;;17.37;11.60;;;;;;;21.50;97.04;99511.60;1657816;86;21676;-82
2021/07/19 00:17:20;;;;;;;30.57;18.25;;;;;;;21.48;95.83;99512.23;1658007;86;21494;-81
2021/07/19 00:19:50;;;;;;;31.35;20.68;;;;;;;21.48;96.05;99513.57;1671609;85;21110;-79
2021/07/19 00:22:20;;;;;;;30.75;17.62;;;;;;;21.47;96.55;99511.89;1685363;84;21057;-80
2021/07/19 00:24:47;;;;;;;32.08;19.62;;;;;;;21.44;96.65;99505.49;1684813;85;21108;-79
2021/07/19 00:27:14;;;;;;;29.63;17.82;;;;;;;21.42;96.83;99496.75;1684873;84;21033;-79
2021/07/19 00:29:41;;;;;;;21.93;14.53;;;;;;;21.42;96.19;99500.77;1685652;84;21105;-80
2021/07/19 00:32:08;;;;;;;30.80;18.48;;;;;;;21.42;96.21;99499.89;1685375;85;21601;-81
2021/07/19 00:34:37;;;;;;;32.88;18.42;;;;;;;21.40;95.29;99494.70;1660265;85;21072;-82
2021/07/19 00:37:04;;;;;;;36.93;18.07;;;;;;;21.41;96.01;99498.22;1685443;85;21030;-82
2021/07/19 00:39:33;;;;;;;31.50;18.60;;;;;;;21.40;96.54;99493.83;1684685;84;21156;-82
2021/07/19 00:42:00;;;;;;;27.73;17.27;;;;;;;21.37;96.12;99497.61;1684466;85;21058;-80
2021/07/19 00:44:28;;;;;;;30.68;18.82;;;;;;;21.33;96.40;99496.23;1687052;85;21612;-80
2021/07/19 00:46:55;;;;;;;26.12;16.60;;;;;;;21.32;96.92;99499.88;1722245;82;21138;-81
2021/07/19 00:49:24;;;;;;;33.75;19.42;;;;;;;21.29;96.00;99502.84;1668405;85;21121;-80
2021/07/19 00:51:53;;;;;;;29.17;18.33;;;;;;;21.28;96.83;99492.63;1697435;84;21070;-80
2021/07/19 00:54:21;;;;;;;27.85;17.35;;;;;;;21.25;96.87;99493.39;1669386;86;21047;-79
2021/07/19 00:56:49;;;;;;;32.93;19.60;;;;;;;21.21;97.15;99497.33;1732244;82;21051;-81
2021/07/19 00:59:17;;;;;;;35.83;20.10;;;;;;;21.21;97.61;99495.99;1732267;82;21153;-80
2021/07/19 01:01:46;;;;;;;32.67;19.12;;;;;;;21.16;98.05;99494.61;1669041;86;21563;-81
2021/07/19 01:04:15;;;;;;;33.92;18.77;;;;;;;21.16;98.50;99493.73;1649446;86;21110;-80
2021/07/19 01:06:45;;;;;;;31.20;19.87;;;;;;;21.12;98.70;99494.53;1676912;84;21095;-81
2021/07/19 01:09:13;;;;;;;28.27;18.48;;;;;;;21.08;98.88;99495.78;1649742;86;21085;-79
2021/07/19 01:11:40;;;;;;;29.67;19.10;;;;;;;21.05;99.17;99490.72;1707022;82;21737;-80
2021/07/19 01:14:08;;;;;;;30.23;17.32;;;;;;;21.02;99.41;99490.14;1731124;82;21050;-78
2021/07/19 01:16:38;;;;;;;33.33;17.70;;;;;;;21.00;99.47;99484.91;1734072;82;21062;-75
2021/07/19 01:19:05;;;;;;;30.68;17.48;;;;;;;20.99;99.40;99480.56;1734217;82;21691;-74
2021/07/19 01:22:10;;;;;;;28.90;17.83;;;;;;;20.98;99.12;99476.20;1734025;82;21030;-73
2021/07/19 01:24:49;;;;;;;29.92;18.00;;;;;;;20.97;99.41;99471.82;1733760;82;21237;-74
2021/07/19 01:27:46;;;;;;;30.23;17.50;;;;;;;20.96;98.65;99475.50;1733559;82;21034;-73
2021/07/19 01:30:14;;;;;;;27.98;16.50;;;;;;;20.98;98.38;99478.88;1733932;82;21596;-74
2021/07/19 01:32:44;;;;;;;28.83;19.12;;;;;;;20.96;97.69;99471.48;1733759;82;21042;-74
2021/07/19 01:35:13;;;;;;;28.62;18.87;;;;;;;20.96;97.87;99472.82;1734268;82;21015;-74
2021/07/19 01:37:42;;;;;;;22.22;13.30;;;;;;;20.95;98.18;99480.48;1733922;82;21093;-78
2021/07/19 01:40:12;;;;;;;33.47;17.97;;;;;;;20.93;98.34;99481.11;1734004;82;21138;-77
2021/07/19 01:42:39;;;;;;;28.70;16.93;;;;;;;20.90;96.91;99476.05;1734119;82;21053;-77
2021/07/19 01:45:09;;;;;;;24.30;16.37;;;;;;;20.90;96.39;99482.73;1733986;82;21552;-77
2021/07/19 01:47:37;;;;;;;26.15;17.42;;;;;;;20.91;97.39;99483.07;1713463;82;21061;-78
2021/07/19 01:50:06;;;;;;;28.00;18.17;;;;;;;20.89;96.85;99476.55;1713608;82;22094;-77
2021/07/19 01:52:36;;;;;;;29.85;18.82;;;;;;;20.90;97.69;99480.89;1731165;82;21857;-75
2021/07/19 01:55:04;;;;;;;29.42;17.25;;;;;;;20.86;98.10;99475.95;1734290;82;21100;-76
2021/07/19 01:57:33;;;;;;;31.00;16.77;;;;;;;20.88;97.54;99486.03;1736302;82;21074;-77
2021/07/19 01:59:59;;;;;;;27.82;18.37;;;;;;;20.85;97.81;99488.50;1735895;82;21066;-75
2021/07/19 02:02:40;;;;;;;34.67;17.92;;;;;;;20.85;97.86;99489.00;1697052;82;21137;-76
2021/07/19 02:05:12;;;;;;;29.72;18.48;;;;;;;20.84;98.15;99491.30;1733549;82;20991;-76
2021/07/19 02:07:41;;;;;;;27.80;18.23;;;;;;;20.81;98.75;99489.75;1733924;82;21011;-75
2021/07/19 02:10:11;;;;;;;28.12;18.37;;;;;;;20.79;99.06;99493.05;1734488;82;21027;-74
2021/07/19 02:12:44;;;;;;;34.63;18.77;;;;;;;20.77;99.40;99498.19;1718391;82;21080;-74
2021/07/19 02:15:18;;;;;;;36.90;18.30;;;;;;;20.73;99.58;99504.33;1689539;84;21041;-76
2021/07/19 02:17:55;;;;;;;32.53;17.75;;;;;;;20.69;99.92;99509.09;1689325;84;21120;-75
2021/07/19 02:20:26;;;;;;;23.45;16.48;;;;;;;20.66;100.00;99509.38;1690257;84;21139;-77
2021/07/19 02:22:54;;;;;;;27.75;15.43;;;;;;;20.64;100.00;99514.02;1695933;82;21081;-76
2021/07/19 02:25:40;;;;;;;28.40;16.73;;;;;;;20.63;100.00;99510.97;1734208;82;21057;-79
2021/07/19 02:28:12;;;;;;;30.25;17.42;;;;;;;20.64;100.00;99512.67;1735356;82;21245;-78
2021/07/19 02:30:41;;;;;;;27.30;17.40;;;;;;;20.65;100.00;99509.00;1734459;82;21034;-77
2021/07/19 02:33:10;;;;;;;26.97;17.27;;;;;;;20.67;100.00;99517.74;1733938;82;21046;-77
2021/07/19 02:35:38;;;;;;;28.17;16.95;;;;;;;20.67;100.00;99505.70;1734058;82;21054;-77
2021/07/19 02:38:06;;;;;;;28.35;16.75;;;;;;;20.68;100.00;99511.89;1731916;82;22460;-77
2021/07/19 02:40:35;;;;;;;30.10;17.70;;;;;;;20.69;100.00;99511.77;1711327;83;21110;-77
2021/07/19 02:43:05;;;;;;;30.37;17.60;;;;;;;20.73;100.00;99513.19;1720024;83;21130;-76
2021/07/19 02:45:38;;;;;;;24.57;17.23;;;;;;;20.77;100.00;99505.72;1720188;83;21083;-76
2021/07/19 02:48:07;;;;;;;31.00;19.07;;;;;;;20.82;100.00;99506.64;1719886;82;22031;-76
2021/07/19 02:50:36;;;;;;;23.32;16.00;;;;;;;20.86;100.00;99512.08;1719552;82;21063;-77
2021/07/19 02:53:09;;;;;;;30.62;17.65;;;;;;;20.88;100.00;99512.80;1719633;83;21154;-75
2021/07/19 02:55:37;;;;;;;33.58;17.65;;;;;;;20.90;99.97;99508.16;1709017;83;21078;-76
2021/07/19 02:58:05;;;;;;;23.27;15.60;;;;;;;20.94;99.64;99513.09;1719809;82;21087;-77
2021/07/19 03:00:33;;;;;;;25.77;18.07;;;;;;;20.99;99.42;99515.36;1716088;82;21494;-77
2021/07/19 03:03:04;;;;;;;25.68;17.25;;;;;;;21.03;98.58;99522.13;1704727;84;21145;-77
2021/07/19 03:05:35;;;;;;;25.05;15.60;;;;;;;21.08;98.71;99526.57;1704440;84;21116;-75
2021/07/19 03:08:05;;;;;;;31.65;16.67;;;;;;;21.15;98.89;99527.70;1704427;84;21030;-77
2021/07/19 03:10:44;;;;;;;27.45;15.88;;;;;;;21.23;98.47;99527.50;1651088;86;21106;-77
2021/07/19 03:13:15;;;;;;;26.42;16.82;;;;;;;21.32;97.17;99527.99;1689130;83;21180;-77
2021/07/19 03:15:43;;;;;;;28.27;17.45;;;;;;;21.40;97.64;99532.20;1666714;84;21125;-70
2021/07/19 03:18:11;;;;;;;20.80;12.35;;;;;;;21.47;97.44;99529.30;1704711;83;21091;-70
2021/07/19 03:20:41;;;;;;;29.02;16.27;;;;;;;21.56;96.00;99529.80;1670654;85;21139;-69
2021/07/19 03:23:15;;;;;;;27.60;16.17;;;;;;;21.70;95.62;99539.73;1677033;83;21663;-72
2021/07/19 03:25:44;;;;;;;24.98;14.87;;;;;;;21.80;93.89;99553.96;1721856;82;21047;-69
2021/07/19 03:28:12;;;;;;;27.50;16.15;;;;;;;21.91;94.06;99552.47;1651292;85;21674;-72
2021/07/19 03:30:40;;;;;;;27.37;16.93;;;;;;;22.02;92.96;99547.92;1685847;84;22117;-71
2021/07/19 03:33:08;;;;;;;23.73;16.27;;;;;;;22.18;93.55;99550.87;1693192;84;21041;-73
2021/07/19 03:35:35;;;;;;;23.30;16.70;;;;;;;22.34;93.73;99555.66;1677919;84;21129;-69
2021/07/19 03:38:04;;;;;;;23.85;15.48;;;;;;;22.47;93.05;99555.31;1672603;84;21046;-70
2021/07/19 03:40:33;;;;;;;28.25;16.35;;;;;;;22.61;92.41;99552.14;1669884;84;21105;-70
2021/07/19 03:43:01;;;;;;;31.65;16.90;;;;;;;22.74;91.82;99556.67;1677763;84;21657;-69
2021/07/19 03:45:28;;;;;;;27.25;15.68;;;;;;;22.86;91.02;99557.81;1693703;84;21093;-70
2021/07/19 03:47:56;;;;;;;25.32;16.30;;;;;;;23.01;90.63;99555.02;1683492;84;21211;-70
2021/07/19 03:50:24;;;;;;;26.00;16.10;;;;;;;23.19;88.47;99547.83;1663867;85;21153;-71
2021/07/19 03:52:51;;;;;;;26.95;15.72;;;;;;;23.44;88.85;99548.92;1665786;83;21586;-70
2021/07/19 03:55:20;;;;;;;27.32;16.52;;;;;;;23.69;88.76;99555.00;1661208;84;21756;-70
2021/07/19 03:57:46;;;;;;;26.57;16.57;;;;;;;23.95;87.55;99558.61;1651859;83;21104;-71
2021/07/19 04:00:17;;;;;;;33.30;17.17;;;;;;;24.20;87.36;99553.38;1682665;84;21170;-70
2021/07/19 04:02:51;;;;;;;31.50;15.98;;;;;;;24.47;86.18;99551.05;1657599;85;21056;-71
2021/07/19 04:05:16;;;;;;;35.50;16.67;;;;;;;24.74;85.12;99543.27;1699061;84;21096;-70
2021/07/19 04:07:46;;;;;;;29.42;16.73;;;;;;;24.99;84.56;99543.37;1706641;83;21609;-70
2021/07/19 04:10:18;;;;;;;29.27;15.68;;;;;;;25.17;83.75;99540.05;1699498;84;21572;-70
2021/07/19 04:12:50;;;;;;;28.65;16.48;;;;;;;25.43;82.76;99531.02;1698497;83;21046;-70
2021/07/19 04:15:19;;;;;;;29.70;16.70;;;;;;;25.77;82.13;99528.64;1677285;84;21369;-76
2021/07/19 04:17:47;;;;;;;34.15;17.48;;;;;;;26.09;79.77;99529.14;1696033;83;21527;-75
2021/07/19 04:20:19;;;;;;;26.70;17.37;;;;;;;26.37;78.62;99533.65;1686394;83;21125;-71
2021/07/19 04:22:47;;;;;;;32.55;17.52;;;;;;;26.66;77.25;99535.75;1656993;85;21100;-76
2021/07/19 04:25:15;;;;;;;28.57;16.95;;;;;;;26.93;75.33;99532.27;1677957;85;21045;-73
2021/07/19 04:27:45;;;;;;;29.45;17.65;;;;;;;27.22;73.70;99530.27;1674134;85;21092;-73
2021/07/19 04:30:14;;;;;;;26.05;15.15;;;;;;;27.43;71.40;99532.84;1678073;84;21108;-73
2021/07/19 04:32:53;;;;;;;27.73;16.10;;;;;;;27.55;69.54;99531.38;1663285;85;21190;-74
2021/07/19 04:35:20;;;;;;;27.50;17.45;;;;;;;27.78;69.81;99533.55;1671604;84;21128;-72
2021/07/19 04:37:53;;;;;;;27.22;17.40;;;;;;;27.96;68.76;99535.13;1653412;85;21584;-73
2021/07/19 04:40:24;;;;;;;30.62;17.85;;;;;;;28.06;68.08;99530.79;1676261;84;21071;-72
2021/07/19 04:42:52;;;;;;;30.27;16.65;;;;;;;28.10;66.70;99526.17;1682827;84;21092;-74
2021/07/19 04:45:20;;;;;;;33.35;17.37;;;;;;;28.11;66.30;99521.08;1668364;84;21246;-72
2021/07/19 04:47:48;;;;;;;30.68;17.27;;;;;;;28.12;65.80;99525.48;1680631;84;21059;-74
2021/07/19 04:50:18;;;;;;;24.57;16.90;;;;;;;28.17;65.25;99527.11;1692606;83;21072;-74
2021/07/19 04:52:53;;;;;;;29.30;15.98;;;;;;;28.35;65.34;99532.69;1689818;84;21195;-72
2021/07/19 04:55:22;;;;;;;25.12;15.60;;;;;;;28.59;62.93;99522.09;1635760;87;21077;-71
2021/07/19 04:57:53;;;;;;;28.60;15.98;;;;;;;28.75;62.35;99521.05;1645000;86;21222;-72
2021/07/19 05:00:21;;;;;;;32.75;17.77;;;;;;;28.85;61.63;99527.03;1632022;87;21579;-71
2021/07/19 05:02:49;;;;;;;31.85;16.87;;;;;;;28.91;61.71;99523.55;1632118;87;21537;-69
2021/07/19 05:05:18;;;;;;;31.33;17.23;;;;;;;29.05;60.53;99522.66;1668230;85;21056;-69
2021/07/19 05:07:45;;;;;;;29.00;16.93;;;;;;;29.09;60.67;99521.80;1668433;86;21120;-69
2021/07/19 05:10:16;;;;;;;28.73;16.93;;;;;;;29.25;60.65;99523.44;1672270;84;21113;-73
2021/07/19 05:12:46;;;;;;;28.55;16.07;;;;;;;29.44;59.66;99516.00;1682853;84;21109;-74
2021/07/19 05:15:14;;;;;;;34.10;15.23;;;;;;;29.61;58.02;99518.44;1668802;86;21110;-73
2021/07/19 05:17:41;;;;;;;25.65;15.63;;;;;;;29.64;57.98;99517.55;1678863;84;21592;-73
2021/07/19 05:20:13;;;;;;;30.37;15.58;;;;;;;29.79;57.19;99512.05;1687810;84;21070;-72
2021/07/19 05:22:51;;;;;;;28.10;14.80;;;;;;;29.96;57.26;99503.64;1671525;84;21088;-73
2021/07/19 05:25:32;;;;;;;30.77;15.43;;;;;;;30.21;56.35;99500.78;1674287;84;21093;-73
2021/07/19 05:28:12;;;;;;;27.15;16.15;;;;;;;30.39;56.28;99507.09;1657592;83;21094;-76
2021/07/19 05:30:44;;;;;;;29.85;16.12;;;;;;;30.62;55.38;99513.58;1680911;83;21542;-78
2021/07/19 05:33:12;;;;;;;34.67;16.45;;;;;;;30.82;53.68;99515.52;1682698;84;21160;-75
2021/07/19 05:35:39;;;;;;;30.88;15.98;;;;;;;30.84;53.99;99514.80;1682487;84;21636;-75
2021/07/19 05:38:07;;;;;;;27.07;14.58;;;;;;;30.85;53.93;99517.86;1627551;87;21595;-76
2021/07/19 05:40:36;;;;;;;33.50;15.28;;;;;;;30.91;53.38;99514.33;1643520;86;21412;-74
2021/07/19 05:43:03;;;;;;;25.60;14.55;;;;;;;30.98;53.35;99523.34;1683766;84;21744;-77
2021/07/19 05:45:30;;;;;;;27.27;14.80;;;;;;;31.14;52.79;99520.25;1682505;84;21103;-75
2021/07/19 05:47:58;;;;;;;25.48;15.78;;;;;;;31.31;52.34;99526.16;1673436;84;22094;-76
2021/07/19 05:50:32;;;;;;;25.92;15.53;;;;;;;31.43;51.94;99520.98;1667120;84;21037;-77
2021/07/19 05:52:59;;;;;;;28.57;15.72;;;;;;;31.40;50.94;99519.98;1673818;84;21572;-77
2021/07/19 05:55:26;;;;;;;32.80;14.40;;;;;;;31.50;51.39;99517.73;1685382;84;21200;-77
2021/07/19 05:57:55;;;;;;;30.10;14.85;;;;;;;31.69;50.29;99520.69;1725927;82;21123;-74
2021/07/19 06:00:22;;;;;;;27.27;15.05;;;;;;;31.91;49.03;99520.79;1717185;82;21794;-75
2021/07/19 06:02:49;;;;;;;30.15;14.10;;;;;;;32.04;48.95;99509.59;1715764;81;21030;-75
2021/07/19 06:05:16;;;;;;;23.32;14.63;;;;;;;32.06;47.87;99511.58;1657668;85;21501;-75
2021/07/19 06:07:43;;;;;;;31.77;15.80;;;;;;;32.20;48.56;99513.22;1655197;85;21535;-74
2021/07/19 06:10:12;;;;;;;28.15;15.40;;;;;;;32.29;48.08;99509.22;1658813;85;21104;-74
2021/07/19 06:12:41;;;;;;;33.67;15.80;;;;;;;32.29;46.96;99514.67;1657935;85;21108;-74
2021/07/19 06:15:11;;;;;;;32.42;16.60;;;;;;;32.16;47.93;99515.55;1649903;85;21125;-75
2021/07/19 06:17:38;;;;;;;29.10;15.70;;;;;;;32.01;48.25;99515.47;1647594;85;21037;-75
2021/07/19 06:20:09;;;;;;;25.75;14.80;;;;;;;32.04;48.09;99519.13;1678477;84;21907;-76
2021/07/19 06:22:36;;;;;;;31.15;15.18;;;;;;;32.08;47.86;99521.73;1665894;86;21097;-74
2021/07/19 06:25:04;;;;;;;32.10;16.23;;;;;;;32.06;47.62;99526.56;1687848;84;21639;-74
2021/07/19 06:27:32;;;;;;;24.10;14.05;;;;;;;32.06;47.83;99523.84;1677119;84;21133;-74
2021/07/19 06:29:58;;;;;;;26.87;14.95;;;;;;;32.10;47.26;99526.45;1670150;84;21084;-75
2021/07/19 06:32:25;;;;;;;26.33;15.70;;;;;;;32.37;47.31;99530.80;1646603;85;21128;-74
2021/07/19 06:34:52;;;;;;;26.60;14.87;;;;;;;32.67;46.40;99527.60;1643145;87;21598;-74
2021/07/19 06:37:19;;;;;;;27.07;17.07;;;;;;;32.79;46.15;99523.13;1642418;87;21099;-74
2021/07/19 06:39:46;;;;;;;30.90;15.65;;;;;;;32.88;45.84;99521.00;1642355;87;21088;-76
2021/07/19 06:42:12;;;;;;;28.73;14.80;;;;;;;33.08;45.95;99527.73;1642356;87;21060;-74
2021/07/19 06:44:40;;;;;;;25.72;14.35;;;;;;;33.34;44.07;99533.58;1664847;86;21111;-73
2021/07/19 06:47:07;;;;;;;26.37;13.08;;;;;;;33.53;44.52;99533.12;1678005;84;21089;-75
2021/07/19 06:49:34;;;;;;;33.05;15.10;;;;;;;33.73;43.39;99532.16;1687457;83;22000;-73
2021/07/19 06:52:00;;;;;;;33.33;15.72;;;;;;;33.48;43.89;99539.78;1669076;85;21036;-75
2021/07/19 06:54:27;;;;;;;25.40;15.05;;;;;;;33.49;44.07;99538.70;1671605;85;21109;-75
2021/07/19 06:56:54;;;;;;;27.98;15.35;;;;;;;33.74;43.76;99536.57;1686785;83;21143;-74
2021/07/19 06:59:21;;;;;;;29.70;13.85;;;;;;;33.94;43.16;99533.14;1672170;84;21598;-75
2021/07/19 07:01:49;;;;;;;30.90;13.58;;;;;;;34.14;42.51;99532.14;1687575;83;21555;-81
2021/07/19 07:04:15;;;;;;;31.75;13.62;;;;;;;34.16;41.31;99535.48;1678261;84;21057;-78
2021/07/19 07:06:42;;;;;;;26.70;13.48;;;;;;;34.28;40.59;99525.50;1668128;85;21049;-79
2021/07/19 07:09:09;;;;;;;23.27;13.28;;;;;;;34.34;40.21;99531.94;1673656;83;27872;-77
2021/07/19 07:11:36;;;;;;;27.60;13.40;;;;;;;34.33;40.51;99531.11;1660076;85;21088;-77
2021/07/19 07:14:04;;;;;;;22.05;12.68;;;;;;;34.33;39.85;99527.02;1654321;85;21491;-78
2021/07/19 07:16:32;;;;;;;27.40;13.15;;;;;;;34.33;40.62;99528.37;1661608;85;21531;-78
2021/07/19 07:19:00;;;;;;;27.05;12.93;;;;;;;34.47;39.81;99523.60;1665088;84;21680;-78
2021/07/19 07:21:27;;;;;;;25.43;12.15;;;;;;;34.65;38.68;99523.63;1663974;84;21154;-78
2021/07/19 07:23:54;;;;;;;24.43;12.30;;;;;;;34.99;38.69;99517.72;1664730;84;21120;-80
2021/07/19 07:26:21;;;;;;;20.37;10.75;;;;;;;35.02;39.25;99522.74;1665351;85;21142;-79
2021/07/19 07:28:49;;;;;;;21.45;11.55;;;;;;;35.34;36.68;99515.66;1662239;85;21096;-79
2021/07/19 07:31:17;;;;;;;25.97;13.35;;;;;;;35.74;37.88;99513.70;1658557;84;21121;-80
2021/07/19 07:33:44;;;;;;;22.82;12.15;;;;;;;35.96;37.44;99506.58;1653710;85;21049;-80
2021/07/19 07:36:15;;;;;;;22.77;12.13;;;;;;;35.86;37.09;99503.58;1665908;85;21060;-81
2021/07/19 07:38:42;;;;;;;33.00;13.30;;;;;;;35.90;37.26;99496.56;1644442;85;21131;-82
2021/07/19 07:41:09;;;;;;;35.20;13.40;;;;;;;36.21;36.45;99493.17;1661513;85;21077;-81
2021/07/19 07:43:36;;;;;;;26.77;11.90;;;;;;;36.21;36.33;99491.80;1664475;85;21543;-78
2021/07/19 07:46:03;;;;;;;30.10;12.00;;;;;;;36.01;36.68;99495.73;1659635;85;21185;-79
2021/07/19 07:48:32;;;;;;;26.23;12.60;;;;;;;35.96;36.59;99490.14;1662525;85;21081;-81
2021/07/19 07:50:59;;;;;;;27.25;11.97;;;;;;;36.01;36.85;99490.80;1653325;85;21130;-79
2021/07/19 07:53:26;;;;;;;26.23;12.20;;;;;;;36.06;36.92;99493.64;1630557;87;21540;-80
2021/07/19 07:55:53;;;;;;;34.40;12.70;;;;;;;36.17;36.08;99485.98;1649759;86;21113;-79
2021/07/19 07:58:20;;;;;;;25.80;11.83;;;;;;;36.22;37.51;99482.52;1651100;86;21064;-75
2021/07/19 08:00:47;;;;;;;23.47;11.35;;;;;;;36.35;36.62;99472.64;1650715;86;21576;-74
2021/07/19 08:03:14;;;;;;;33.42;13.18;;;;;;;36.49;36.67;99472.69;1657240;86;21784;-75
2021/07/19 08:05:41;;;;;;;26.77;12.37;;;;;;;36.61;36.85;99469.94;1639246;86;21105;-74
2021/07/19 08:08:08;;;;;;;24.70;12.03;;;;;;;36.74;36.33;99463.31;1653731;86;21587;-75
2021/07/19 08:10:36;;;;;;;25.97;12.47;;;;;;;36.78;36.00;99457.64;1658398;86;21141;-78
2021/07/19 08:13:03;;;;;;;28.47;11.90;;;;;;;36.73;36.04;99446.58;1653544;86;21128;-76
2021/07/19 08:15:32;;;;;;;29.30;12.03;;;;;;;36.58;35.70;99438.83;1644399;86;21820;-76
2021/07/19 08:17:59;;;;;;;30.37;11.30;;;;;;;36.53;36.39;99431.34;1616724;86;21158;-74
2021/07/19 08:20:26;;;;;;;29.87;11.83;;;;;;;36.83;35.60;99422.06;1645932;85;21049;-72
2021/07/19 08:22:53;;;;;;;26.52;11.15;;;;;;;37.04;34.42;99420.55;1655150;86;21100;-74
2021/07/19 08:25:20;;;;;;;26.90;10.58;;;;;;;37.16;34.71;99410.89;1641772;86;21624;-76
2021/07/19 08:27:47;;;;;;;19.23;10.23;;;;;;;37.21;33.68;99419.20;1640208;85;22207;-75
2021/07/19 08:30:15;;;;;;;20.95;9.83;;;;;;;37.09;33.81;99416.55;1644490;85;21129;-78
2021/07/19 08:32:42;;;;;;;19.52;9.78;;;;;;;37.11;32.90;99428.63;1644272;85;21070;-78
2021/07/19 08:35:10;;;;;;;27.45;10.38;;;;;;;36.74;33.86;99435.88;1633847;86;21062;-77
2021/07/19 08:37:43;;;;;;;25.60;10.28;;;;;;;36.53;34.11;99419.00;1654253;86;21120;-76
2021/07/19 08:40:13;;;;;;;27.77;10.75;;;;;;;36.40;34.98;99408.34;1654288;86;21154;-79
2021/07/19 08:42:40;;;;;;;20.30;9.83;;;;;;;35.98;35.73;99407.69;1649628;86;21060;-79
2021/07/19 08:45:10;;;;;;;26.05;9.70;;;;;;;35.58;36.45;99433.05;1657413;86;21050;-78
2021/07/19 08:47:42;;;;;;;32.25;11.00;;;;;;;35.21;36.53;99455.97;1631365;87;21540;-76
2021/07/19 08:50:10;;;;;;;24.98;10.05;;;;;;;34.70;37.94;99446.38;1642704;86;21033;-76
2021/07/19 08:52:40;;;;;;;20.02;9.45;;;;;;;34.23;38.79;99460.59;1645946;86;21615;-77
2021/07/19 08:55:10;;;;;;;26.75;11.38;;;;;;;33.75;40.25;99490.45;1658461;80;21114;-89
2021/07/19 08:57:44;;;;;;;21.40;9.33;;;;;;;33.41;40.29;99513.06;1682488;85;21056;-80
2021/07/19 09:00:13;;;;;;;22.65;10.50;;;;;;;33.12;40.98;99508.52;1675411;85;21053;-88
2021/07/19 09:05:10;;;;;;;23.20;10.98;;;;;;;32.36;41.78;99471.89;1770168;79;22551;-83
2021/07/19 09:07:38;;;;;;;25.40;9.85;;;;;;;31.95;43.27;99459.39;1727280;82;21096;-83
2021/07/19 09:10:06;;;;;;;22.67;10.65;;;;;;;31.83;43.31;99455.65;1741049;82;21922;-81
2021/07/19 09:12:39;;;;;;;21.68;10.28;;;;;;;31.80;43.16;99458.80;1742845;82;21017;-80
2021/07/19 09:15:09;;;;;;;23.87;10.72;;;;;;;31.82;43.73;99467.60;1734551;82;21040;-81
2021/07/19 09:17:36;;;;;;;25.48;9.25;;;;;;;31.77;45.39;99482.34;1731268;82;21069;-79
2021/07/19 09:20:07;;;;;;;14.78;8.75;;;;;;;31.46;43.49;99496.06;1733546;82;20965;-81
2021/07/19 09:22:34;;;;;;;19.40;8.08;;;;;;;30.99;45.80;99520.96;1731413;82;21223;-80
2021/07/19 09:25:16;;;;;;;22.42;8.90;;;;;;;30.52;43.81;99547.05;1722053;82;21084;-84
2021/07/19 09:28:04;;;;;;;18.73;9.03;;;;;;;30.01;47.96;99571.23;1740189;82;21013;-80
2021/07/19 09:30:37;;;;;;;51.20;9.85;;;;;;;29.50;48.83;99590.36;1728434;82;21545;-81
2021/07/19 09:33:09;;;;;;;29.87;7.80;;;;;;;28.96;49.86;99603.76;1732835;82;21037;-82
2021/07/19 09:35:45;;;;;;;16.75;5.50;;;;;;;27.76;53.98;99624.86;1725097;82;21673;-80
2021/07/19 09:38:16;;;;;;;19.37;6.15;;;;;;;26.49;58.73;99651.56;1725476;82;21061;-74
2021/07/19 09:40:48;;;;;;;17.32;6.08;;;;;;;25.50;60.87;99661.42;1738143;82;21131;-73
2021/07/19 09:43:26;;;;;;;17.17;6.70;;;;;;;25.05;65.52;99696.23;1700655;82;21053;-74
2021/07/19 09:45:59;;;;;;;25.43;9.08;;;;;;;24.69;69.05;99704.47;1731305;82;21026;-73
2021/07/19 09:48:27;;;;;;;23.57;8.98;;;;;;;24.06;72.68;99749.33;1728945;82;21983;-73
2021/07/19 09:50:54;;;;;;;22.48;8.85;;;;;;;23.57;75.39;99732.62;1728139;82;21053;-73
2021/07/19 09:53:37;;;;;;;12.23;7.83;;;;;;;23.06;77.92;99747.42;1727430;82;21035;-74
2021/07/19 09:56:26;;;;;;;18.90;9.13;;;;;;;22.53;82.76;99728.64;1732546;82;20993;-75
2021/07/19 09:58:53;;;;;;;25.80;9.70;;;;;;;22.08;90.49;99670.19;1733547;82;21652;-73
2021/07/19 10:01:30;;;;;;;17.87;9.85;;;;;;;21.76;92.39;99638.30;1724572;82;21093;-74
2021/07/19 10:04:14;;;;;;;20.17;9.00;;;;;;;21.49;96.34;99605.02;1727730;82;21715;-73
2021/07/19 10:06:43;;;;;;;17.25;9.20;;;;;;;21.38;96.75;99586.37;1677456;84;21059;-73
2021/07/19 10:09:12;;;;;;;22.52;9.73;;;;;;;21.35;96.30;99590.67;1720485;82;20978;-74
2021/07/19 10:11:42;;;;;;;18.92;8.13;;;;;;;21.37;96.18;99561.89;1727088;82;20923;-75
2021/07/19 10:14:09;;;;;;;11.38;6.65;;;;;;;21.36;93.77;99552.17;1730723;82;21099;-74
2021/07/19 10:16:39;;;;;;;13.00;6.30;;;;;;;21.37;86.61;99571.27;1720312;82;20919;-75
2021/07/19 10:19:06;;;;;;;14.95;5.55;;;;;;;21.42;86.40;99586.48;1721510;82;21062;-72
2021/07/19 10:21:35;;;;;;;13.43;6.55;;;;;;;21.45;85.72;99603.61;1705344;83;21617;-74
2021/07/19 10:24:05;;;;;;;20.37;8.73;;;;;;;21.42;89.14;99634.70;1713738;82;21506;-76
2021/07/19 10:26:32;;;;;;;23.70;12.45;;;;;;;21.33;95.26;99648.88;1713800;82;22083;-76
2021/07/19 10:28:59;;;;;;;31.57;14.60;;;;;;;21.18;99.12;99655.59;1710930;82;21058;-76
2021/07/19 10:31:27;;;;;;;26.27;17.42;;;;;;;21.09;100.00;99658.59;1719773;82;22257;-76
2021/07/19 10:33:56;;;;;;;34.50;22.98;;;;;;;21.01;99.76;99668.65;1720348;82;21045;-76
2021/07/19 10:36:49;;;;;;;40.52;25.08;;;;;;;20.98;97.56;99652.87;1725975;82;21117;-76
2021/07/19 10:39:39;;;;;;;136.22;97.65;;;;;;;21.00;95.22;99634.81;1725649;82;21065;-76
2021/07/19 10:42:10;;;;;;;;;;;;;;;21.08;96.90;99608.22;1735044;82;21010;-75
2021/07/19 10:44:39;;;;;;;54.18;34.58;;;;;;;21.16;97.46;99602.17;1732149;82;20211;-75
2021/07/19 10:47:21;;;;;;;22.62;12.75;;;;;;;21.22;96.89;99612.84;1721179;82;21065;-76
2021/07/19 10:50:00;;;;;;;24.18;12.37;;;;;;;21.27;97.22;99620.80;1708437;82;21061;-76
2021/07/19 10:52:41;;;;;;;21.42;12.03;;;;;;;21.35;98.37;99618.80;1716827;82;21260;-75
2021/07/19 10:55:10;;;;;;;30.40;15.28;;;;;;;21.38;98.24;99637.25;1715739;82;21095;-76
2021/07/19 10:57:39;;;;;;;58.25;40.50;;;;;;;21.43;97.97;99641.73;1723270;82;20999;-75
2021/07/19 11:00:15;;;;;;;85.83;64.45;;;;;;;21.47;98.05;99653.88;1715968;82;21546;-75
2021/07/19 11:02:42;;;;;;;68.60;51.15;;;;;;;21.50;96.35;99661.62;1654972;85;20998;-75
2021/07/19 11:05:11;;;;;;;86.95;65.78;;;;;;;21.49;92.98;99680.53;1680883;83;21132;-75
2021/07/19 11:07:45;;;;;;;67.58;51.50;;;;;;;21.46;92.71;99690.16;1675645;83;21058;-75
2021/07/19 11:10:17;;;;;;;55.25;38.88;;;;;;;21.42;91.11;99707.48;1686940;84;21566;-75
2021/07/19 11:12:56;;;;;;;40.70;25.60;;;;;;;21.37;94.78;99744.89;1695136;83;21020;-75
2021/07/19 11:15:37;;;;;;;32.55;18.67;;;;;;;21.27;98.41;99755.20;1676551;83;22117;-75
2021/07/19 11:18:28;;;;;;;;;;;;;;;21.14;100.00;99765.66;1706714;83;21461;-76
2021/07/19 11:20:59;;;;;;;37.40;24.77;;;;;;;21.06;100.00;99788.72;1685217;84;20234;-77
2021/07/19 11:23:35;;;;;;;41.45;29.70;;;;;;;20.97;100.00;99809.09;1689842;84;21143;-77
2021/07/19 11:26:05;;;;;;;41.08;28.02;;;;;;;20.86;100.00;99806.47;1667144;84;21139;-75
2021/07/19 11:28:42;;;;;;;;;;;;;;;20.77;98.83;99797.89;1661910;82;23399;-75
2021/07/19 11:31:13;;;;;;;25.12;16.17;;;;;;;20.73;98.27;99771.40;1678811;85;22146;-75
2021/07/19 11:33:41;;;;;;;;;;;;;;;20.73;99.68;99738.45;1685333;83;21069;-75
2021/07/19 11:36:29;;;;;;;23.35;13.45;;;;;;;20.78;100.00;99699.25;1671588;83;20207;-76